createdAt,value
2022-11-18T00:00:55.880Z,2.53
2022-11-18T00:03:23.110Z,2.72
2022-11-18T00:05:56.772Z,2.50
2022-11-18T00:08:24.974Z,3.42
2022-11-18T00:10:52.216Z,2.65
2022-11-18T00:13:37.622Z,2.78
2022-11-18T00:16:09.990Z,2.90
2022-11-18T00:18:37.704Z,2.83
2022-11-18T00:21:11.075Z,2.70
2022-11-18T00:26:14.799Z,2.80
2022-11-18T00:28:42.231Z,2.90
2022-11-18T00:31:13.791Z,2.75
2022-11-18T00:33:40.826Z,2.65
2022-11-18T00:36:09.844Z,2.65
2022-11-18T00:38:36.772Z,2.60
2022-11-18T00:41:06.937Z,2.72
2022-11-18T00:43:34.627Z,2.88
2022-11-18T00:46:01.765Z,2.55
2022-11-18T00:48:28.718Z,2.38
2022-11-18T00:50:57.765Z,2.72
2022-11-18T00:53:26.115Z,2.72
2022-11-18T00:55:53.190Z,2.55
2022-11-18T00:58:19.746Z,2.88
2022-11-18T01:00:51.245Z,2.53
2022-11-18T01:03:18.851Z,2.45
2022-11-18T01:05:45.336Z,2.65
2022-11-18T01:08:12.818Z,2.72
2022-11-18T01:10:40.730Z,2.08
2022-11-18T01:13:20.522Z,2.67
2022-11-18T01:15:56.542Z,2.42
2022-11-18T01:18:26.120Z,2.90
2022-11-18T01:20:53.002Z,2.35
2022-11-18T01:23:20.881Z,2.47
2022-11-18T01:25:49.470Z,2.00
2022-11-18T01:28:21.957Z,2.13
2022-11-18T01:30:49.972Z,2.53
2022-11-18T01:33:16.538Z,2.58
2022-11-18T01:35:43.867Z,2.00
2022-11-18T01:38:14.650Z,2.72
2022-11-18T01:40:41.471Z,2.60
2022-11-18T01:43:18.353Z,2.65
2022-11-18T01:45:47.662Z,2.33
2022-11-18T01:48:20.976Z,2.83
2022-11-18T01:51:01.880Z,2.90
2022-11-18T01:53:34.406Z,2.45
2022-11-18T01:56:07.150Z,2.05
2022-11-18T01:58:44.158Z,1.77
2022-11-18T02:01:11.266Z,2.20
2022-11-18T02:03:38.803Z,1.98
2022-11-18T02:06:08.541Z,2.20
2022-11-18T02:08:37.597Z,2.15
2022-11-18T02:11:05.038Z,2.33
2022-11-18T02:16:22.809Z,1.92
2022-11-18T02:19:00.998Z,2.35
2022-11-18T02:21:50.374Z,1.80
2022-11-18T02:24:19.934Z,1.80
2022-11-18T02:27:09.859Z,2.05
2022-11-18T02:29:56.346Z,2.10
2022-11-18T02:32:29.578Z,2.05
2022-11-18T02:35:02.932Z,2.30
2022-11-18T02:37:36.643Z,1.77
2022-11-18T02:40:05.834Z,1.85
2022-11-18T02:42:35.220Z,2.10
2022-11-18T02:45:07.830Z,2.00
2022-11-18T02:47:37.357Z,1.92
2022-11-18T02:50:09.630Z,2.10
2022-11-18T02:52:38.542Z,2.40
2022-11-18T02:55:09.134Z,2.10
2022-11-18T02:57:38.113Z,2.47
2022-11-18T03:00:05.181Z,1.90
2022-11-18T03:02:46.606Z,1.90
2022-11-18T03:05:27.359Z,1.88
2022-11-18T03:07:59.859Z,1.88
2022-11-18T03:10:34.441Z,1.75
2022-11-18T03:13:03.732Z,2.10
2022-11-18T03:15:42.307Z,1.70
2022-11-18T03:18:20.974Z,2.00
2022-11-18T03:20:58.634Z,1.85
2022-11-18T03:23:35.467Z,1.70
2022-11-18T03:26:09.925Z,2.00
2022-11-18T03:28:41.838Z,1.50
2022-11-18T03:31:18.824Z,1.83
2022-11-18T03:33:50.437Z,1.70
2022-11-18T03:36:21.036Z,1.80
2022-11-18T03:38:53.531Z,1.98
2022-11-18T03:41:21.851Z,1.60
2022-11-18T03:44:01.898Z,1.75
2022-11-18T03:46:44.038Z,2.10
2022-11-18T03:49:17.065Z,1.70
2022-11-18T03:51:50.182Z,1.60
2022-11-18T03:54:28.993Z,1.88
2022-11-18T03:57:01.932Z,1.60
2022-11-18T03:59:34.042Z,1.92
2022-11-18T04:02:19.629Z,1.88
2022-11-18T04:07:35.973Z,1.80
2022-11-18T04:10:16.706Z,1.60
2022-11-18T04:12:54.097Z,1.60
2022-11-18T04:15:20.725Z,1.77
2022-11-18T04:17:47.227Z,1.48
2022-11-18T04:20:18.259Z,1.60
2022-11-18T04:22:44.974Z,1.35
2022-11-18T04:25:11.859Z,1.40
2022-11-18T04:27:38.694Z,1.80
2022-11-18T04:30:06.639Z,1.63
2022-11-18T04:32:33.311Z,1.77
2022-11-18T04:34:59.866Z,1.65
2022-11-18T04:37:26.360Z,1.60
2022-11-18T04:39:52.845Z,1.40
2022-11-18T04:42:19.327Z,1.85
2022-11-18T04:44:45.786Z,1.42
2022-11-18T04:47:12.225Z,1.40
2022-11-18T04:49:38.687Z,1.70
2022-11-18T04:52:05.486Z,1.50
2022-11-18T04:54:32.016Z,1.60
2022-11-18T04:56:58.510Z,1.77
2022-11-18T04:59:27.605Z,1.73
2022-11-18T05:01:54.904Z,1.50
2022-11-18T05:04:24.754Z,1.52
2022-11-18T05:06:51.393Z,1.35
2022-11-18T05:09:18.651Z,1.20
2022-11-18T05:14:31.418Z,1.67
2022-11-18T05:19:25.232Z,1.25
2022-11-18T05:21:51.962Z,1.60
2022-11-18T05:24:18.490Z,1.70
2022-11-18T05:26:45.026Z,1.27
2022-11-18T05:29:11.954Z,1.40
2022-11-18T05:31:38.427Z,1.70
2022-11-18T05:34:04.964Z,1.65
2022-11-18T05:36:31.447Z,1.48
2022-11-18T05:39:01.216Z,1.42
2022-11-18T05:41:46.386Z,1.60
2022-11-18T05:44:12.940Z,1.63
2022-11-18T05:46:39.603Z,1.75
2022-11-18T05:49:06.199Z,1.73
2022-11-18T05:51:32.672Z,1.70
2022-11-18T05:53:59.791Z,1.52
2022-11-18T05:56:35.706Z,1.55
2022-11-18T05:59:02.321Z,1.63
2022-11-18T06:01:37.353Z,2.20
2022-11-18T06:04:27.882Z,1.58
2022-11-18T06:07:00.324Z,1.83
2022-11-18T06:09:30.906Z,1.90
2022-11-18T06:12:00.604Z,1.50
2022-11-18T06:14:52.202Z,1.75
2022-11-18T06:17:25.439Z,1.58
2022-11-18T06:19:52.312Z,1.77
2022-11-18T06:22:19.050Z,1.63
2022-11-18T06:24:45.640Z,1.70
2022-11-18T06:27:14.289Z,1.73
2022-11-18T06:29:40.779Z,1.55
2022-11-18T06:32:07.387Z,1.60
2022-11-18T06:34:38.282Z,1.40
2022-11-18T06:37:20.644Z,1.75
2022-11-18T06:39:47.398Z,1.70
2022-11-18T06:42:34.313Z,1.77
2022-11-18T06:45:02.182Z,1.40
2022-11-18T06:47:29.103Z,1.70
2022-11-18T06:49:55.639Z,1.60
2022-11-18T06:52:23.398Z,1.80
2022-11-18T06:54:49.878Z,1.40
2022-11-18T06:57:16.466Z,1.48
2022-11-18T06:59:42.924Z,1.85
2022-11-18T07:02:09.390Z,2.33
2022-11-18T07:04:39.566Z,2.40
2022-11-18T07:07:07.072Z,1.85
2022-11-18T07:09:37.508Z,2.00
2022-11-18T07:12:04.453Z,2.33
2022-11-18T07:14:31.637Z,2.00
2022-11-18T07:16:58.151Z,1.90
2022-11-18T07:19:24.665Z,1.83
2022-11-18T07:21:51.213Z,2.10
2022-11-18T07:24:17.735Z,2.10
2022-11-18T07:26:44.299Z,1.90
2022-11-18T07:29:10.835Z,2.10
2022-11-18T07:31:40.899Z,2.20
2022-11-18T07:34:08.075Z,1.77
2022-11-18T07:36:36.066Z,2.00
2022-11-18T07:39:05.034Z,1.70
2022-11-18T07:41:31.637Z,1.70
2022-11-18T07:44:01.124Z,1.90
2022-11-18T07:46:33.390Z,1.92
2022-11-18T07:49:02.034Z,1.80
2022-11-18T07:51:31.746Z,1.80
2022-11-18T07:53:58.262Z,1.77
2022-11-18T07:56:25.030Z,1.70
2022-11-18T07:58:55.758Z,1.90
2022-11-18T08:01:29.056Z,1.90
2022-11-18T08:06:22.097Z,1.90
2022-11-18T08:08:48.903Z,1.98
2022-11-18T08:11:22.265Z,1.80
2022-11-18T08:13:49.593Z,1.98
2022-11-18T08:16:22.280Z,1.70
2022-11-18T08:18:49.601Z,1.75
2022-11-18T08:21:18.355Z,1.70
2022-11-18T08:23:50.524Z,1.70
2022-11-18T08:26:17.459Z,1.63
2022-11-18T08:28:45.027Z,2.03
2022-11-18T08:31:25.680Z,1.83
2022-11-18T08:34:03.268Z,1.70
2022-11-18T08:36:36.402Z,1.60
2022-11-18T08:39:05.558Z,1.67
2022-11-18T08:41:40.066Z,1.65
2022-11-18T08:44:08.533Z,1.48
2022-11-18T08:46:35.194Z,1.70
2022-11-18T08:49:01.862Z,1.63
2022-11-18T08:51:28.652Z,1.52
2022-11-18T08:53:55.818Z,1.70
2022-11-18T08:56:24.030Z,1.48
2022-11-18T08:58:51.659Z,1.65
2022-11-18T09:01:18.372Z,1.63
2022-11-18T09:03:44.944Z,1.55
2022-11-18T09:06:14.131Z,1.50
2022-11-18T09:08:41.215Z,1.52
2022-11-18T09:11:13.646Z,1.27
2022-11-18T09:14:04.311Z,1.60
2022-11-18T09:16:29.247Z,1.60
2022-11-18T09:18:57.359Z,1.77
2022-11-18T09:21:25.074Z,1.52
2022-11-18T09:23:51.856Z,1.70
2022-11-18T09:26:22.620Z,1.65
2022-11-18T09:28:50.091Z,1.30
2022-11-18T09:31:17.999Z,1.42
2022-11-18T09:33:44.946Z,1.40
2022-11-18T09:36:14.608Z,1.63
2022-11-18T09:38:41.336Z,1.40
2022-11-18T09:41:16.327Z,1.58
2022-11-18T09:44:07.908Z,1.40
2022-11-18T09:47:11.765Z,1.58
2022-11-18T09:52:12.657Z,1.60
2022-11-18T09:54:39.894Z,1.27
2022-11-18T09:57:15.139Z,1.38
2022-11-18T09:59:41.980Z,1.42
2022-11-18T10:02:43.272Z,1.33
2022-11-18T10:05:20.042Z,1.60
2022-11-18T10:07:56.227Z,1.05
2022-11-18T10:10:31.488Z,1.40
2022-11-18T10:13:09.919Z,1.38
2022-11-18T10:15:53.888Z,1.38
2022-11-18T10:18:58.332Z,1.23
2022-11-18T10:21:34.007Z,1.20
2022-11-18T10:24:08.462Z,1.25
2022-11-18T10:26:40.801Z,1.00
2022-11-18T10:29:10.963Z,1.13
2022-11-18T10:31:39.065Z,1.10
2022-11-18T10:34:05.605Z,1.33
2022-11-18T10:36:37.983Z,1.48
2022-11-18T10:39:10.530Z,1.13
2022-11-18T10:41:45.730Z,1.10
2022-11-18T10:44:31.885Z,1.20
2022-11-18T10:47:24.450Z,1.13
2022-11-18T10:49:52.751Z,1.20
2022-11-18T10:52:20.134Z,1.30
2022-11-18T10:57:36.314Z,1.05
2022-11-18T11:00:03.806Z,1.20
2022-11-18T11:02:31.595Z,0.98
2022-11-18T11:05:01.487Z,1.08
2022-11-18T11:07:32.849Z,1.30
2022-11-18T11:10:22.736Z,1.20
2022-11-18T11:12:57.290Z,1.00
2022-11-18T11:15:46.012Z,1.05
2022-11-18T11:18:39.010Z,1.40
2022-11-18T11:21:16.372Z,1.20
2022-11-18T11:23:43.666Z,1.00
2022-11-18T11:29:33.463Z,1.15
2022-11-18T11:32:37.176Z,1.27
2022-11-18T11:35:07.013Z,1.42
2022-11-18T11:37:45.068Z,1.05
2022-11-18T11:40:37.214Z,1.10
2022-11-18T11:43:22.156Z,1.15
2022-11-18T11:45:51.652Z,1.10
2022-11-18T11:48:44.133Z,0.80
2022-11-18T11:51:35.511Z,1.25
2022-11-18T11:54:36.219Z,1.00
2022-11-18T11:57:15.487Z,1.10
2022-11-18T12:00:01.031Z,1.33
2022-11-18T12:02:36.666Z,1.20
2022-11-18T12:05:08.229Z,1.23
2022-11-18T12:07:57.373Z,0.77
2022-11-18T12:10:29.980Z,1.00
2022-11-18T12:13:18.284Z,0.90
2022-11-18T12:16:12.691Z,1.00
2022-11-18T12:18:50.494Z,0.93
2022-11-18T12:21:45.365Z,1.02
2022-11-18T12:24:34.175Z,1.00
2022-11-18T12:27:27.211Z,0.90
2022-11-18T12:29:56.948Z,0.95
2022-11-18T12:32:43.515Z,0.90
2022-11-18T12:35:12.837Z,1.25
2022-11-18T12:37:50.966Z,0.90
2022-11-18T12:40:52.317Z,0.70
2022-11-18T12:43:44.251Z,0.90
2022-11-18T12:46:31.197Z,0.90
2022-11-18T12:48:57.934Z,0.80
2022-11-18T12:51:24.720Z,0.80
2022-11-18T12:53:52.654Z,0.85
2022-11-18T12:56:19.170Z,1.00
2022-11-18T12:58:51.850Z,0.90
2022-11-18T13:01:21.430Z,0.77
2022-11-18T13:03:48.045Z,0.80
2022-11-18T13:06:23.580Z,0.90
2022-11-18T13:08:56.747Z,0.90
2022-11-18T13:11:44.592Z,0.82
2022-11-18T13:14:53.019Z,0.98
2022-11-18T13:17:48.860Z,0.63
2022-11-18T13:20:40.676Z,0.68
2022-11-18T13:23:28.789Z,0.75
2022-11-18T13:26:04.839Z,0.80
2022-11-18T13:28:31.232Z,1.00
2022-11-18T13:31:03.615Z,0.70
2022-11-18T13:33:35.924Z,0.70
2022-11-18T13:36:02.496Z,0.73
2022-11-18T13:38:29.032Z,0.70
2022-11-18T13:41:04.573Z,0.80
2022-11-18T13:43:32.356Z,0.80
2022-11-18T13:46:06.945Z,0.52
2022-11-18T13:48:37.246Z,0.63
2022-11-18T13:51:04.147Z,0.50
2022-11-18T13:53:34.896Z,0.80
2022-11-18T13:56:02.996Z,0.52
2022-11-18T13:58:40.229Z,0.65
2022-11-18T14:01:22.571Z,0.50
2022-11-18T14:04:01.095Z,0.65
2022-11-18T14:06:39.463Z,0.60
2022-11-18T14:09:28.437Z,0.73
2022-11-18T14:12:08.519Z,0.65
2022-11-18T14:14:40.328Z,0.60
2022-11-18T14:17:25.900Z,0.60
2022-11-18T14:22:28.525Z,0.60
2022-11-18T14:24:56.393Z,0.60
2022-11-18T14:27:38.967Z,0.68
2022-11-18T14:30:36.806Z,0.63
2022-11-18T14:33:06.203Z,0.30
2022-11-18T14:35:35.066Z,0.52
2022-11-18T14:38:35.361Z,0.50
2022-11-18T14:41:01.767Z,0.45
2022-11-18T14:43:30.054Z,0.60
2022-11-18T14:46:02.409Z,0.77
2022-11-18T14:48:32.597Z,0.70
2022-11-18T14:51:00.247Z,0.63
2022-11-18T14:55:56.893Z,0.70
2022-11-18T14:58:23.314Z,0.80
2022-11-18T15:00:49.921Z,0.95
2022-11-18T15:03:16.853Z,0.70
2022-11-18T15:05:43.427Z,0.80
2022-11-18T15:08:09.971Z,0.73
2022-11-18T15:10:36.557Z,1.00
2022-11-18T15:13:03.031Z,0.80
2022-11-18T15:15:29.566Z,0.75
2022-11-18T15:17:56.004Z,0.90
2022-11-18T15:20:23.360Z,1.10
2022-11-18T15:25:16.260Z,1.23
2022-11-18T15:27:42.712Z,0.98
2022-11-18T15:30:12.824Z,1.10
2022-11-18T15:32:39.403Z,1.00
2022-11-18T15:35:06.302Z,0.80
2022-11-18T15:37:32.772Z,0.73
2022-11-18T15:39:59.726Z,0.93
2022-11-18T15:42:26.176Z,0.88
2022-11-18T15:44:52.596Z,1.00
2022-11-18T15:47:19.024Z,0.82
2022-11-18T15:49:45.569Z,1.02
2022-11-18T15:52:12.364Z,0.80
2022-11-18T15:54:39.442Z,0.68
2022-11-18T15:57:06.022Z,0.80
2022-11-18T15:59:32.494Z,0.95
2022-11-18T16:01:58.998Z,0.98
2022-11-18T16:04:25.584Z,0.63
2022-11-18T16:06:52.073Z,0.80
2022-11-18T16:09:19.053Z,0.80
2022-11-18T16:12:04.146Z,1.38
2022-11-18T16:14:30.795Z,1.20
2022-11-18T16:16:57.839Z,1.10
2022-11-18T16:19:26.190Z,0.85
2022-11-18T16:21:55.802Z,0.90
2022-11-18T16:24:27.641Z,0.80
2022-11-18T16:26:54.520Z,1.20
2022-11-18T16:29:21.528Z,1.20
2022-11-18T16:31:53.023Z,1.10
2022-11-18T16:34:21.008Z,1.13
2022-11-18T16:36:52.917Z,1.10
2022-11-18T16:39:25.547Z,1.08
2022-11-18T16:41:53.791Z,1.60
2022-11-18T16:44:20.226Z,0.75
2022-11-18T16:46:49.043Z,1.00
2022-11-18T16:49:17.869Z,0.93
2022-11-18T16:51:47.306Z,1.10
2022-11-18T16:54:19.595Z,0.90
2022-11-18T16:56:47.836Z,0.88
2022-11-18T16:59:22.427Z,1.15
2022-11-18T17:01:50.548Z,1.00
2022-11-18T17:04:18.152Z,1.20
2022-11-18T17:06:46.355Z,1.40
2022-11-18T17:09:15.724Z,1.13
2022-11-18T17:11:43.040Z,1.27
2022-11-18T17:14:09.508Z,1.60
2022-11-18T17:16:36.003Z,1.20
2022-11-18T17:19:10.141Z,1.20
2022-11-18T17:21:38.316Z,1.13
2022-11-18T17:24:05.202Z,1.20
2022-11-18T17:26:31.674Z,1.10
2022-11-18T17:28:58.119Z,1.67
2022-11-18T17:31:25.315Z,1.15
2022-11-18T17:33:53.725Z,1.50
2022-11-18T17:36:25.332Z,1.45
2022-11-18T17:38:54.385Z,0.98
2022-11-18T17:41:42.272Z,1.35
2022-11-18T17:44:10.656Z,1.60
2022-11-18T17:46:38.480Z,1.13
2022-11-18T17:49:07.577Z,1.10
2022-11-18T17:51:34.083Z,1.30
2022-11-18T17:54:00.664Z,1.10
2022-11-18T17:56:27.228Z,1.13
2022-11-18T17:58:53.736Z,1.27
2022-11-18T18:01:21.570Z,1.30
2022-11-18T18:03:48.657Z,1.40
2022-11-18T18:06:16.054Z,1.20
2022-11-18T18:11:19.231Z,1.50
2022-11-18T18:14:05.134Z,1.25
2022-11-18T18:16:33.462Z,1.08
2022-11-18T18:19:01.685Z,1.67
2022-11-18T18:21:28.653Z,1.15
2022-11-18T18:23:55.115Z,1.00
2022-11-18T18:26:25.262Z,1.85
2022-11-18T18:28:54.772Z,1.25
2022-11-18T18:31:21.297Z,1.00
2022-11-18T18:33:47.899Z,1.45
2022-11-18T18:36:16.810Z,1.85
2022-11-18T18:38:43.852Z,1.63
2022-11-18T18:41:16.653Z,1.52
2022-11-18T18:43:43.532Z,1.60
2022-11-18T18:46:29.672Z,1.65
2022-11-18T18:49:06.746Z,1.40
2022-11-18T18:51:40.832Z,1.73
2022-11-18T18:54:10.500Z,1.95
2022-11-18T18:56:38.527Z,1.70
2022-11-18T18:59:05.527Z,1.65
2022-11-18T19:01:33.438Z,1.88
2022-11-18T19:04:02.268Z,1.75
2022-11-18T19:09:16.836Z,1.65
2022-11-18T19:12:02.188Z,1.75
2022-11-18T19:14:29.149Z,1.85
2022-11-18T19:16:56.809Z,1.80
2022-11-18T19:19:44.678Z,1.60
2022-11-18T19:22:13.870Z,1.77
2022-11-18T19:24:50.208Z,1.73
2022-11-18T19:27:17.886Z,1.85
2022-11-18T19:29:44.484Z,1.60
2022-11-18T19:32:11.094Z,1.90
2022-11-18T19:34:37.563Z,1.50
2022-11-18T19:37:04.053Z,1.50
2022-11-18T19:39:30.496Z,1.80
2022-11-18T19:41:56.928Z,1.90
2022-11-18T19:44:23.391Z,1.85
2022-11-18T19:46:50.049Z,1.85
2022-11-18T19:49:17.158Z,1.60
2022-11-18T19:51:43.816Z,1.83
2022-11-18T19:54:10.303Z,2.15
2022-11-18T19:56:36.762Z,1.70
2022-11-18T19:59:03.260Z,1.92
2022-11-18T20:01:30.024Z,1.75
2022-11-18T20:03:58.528Z,1.73
2022-11-18T20:06:27.245Z,1.65
2022-11-18T20:08:54.289Z,1.88
2022-11-18T20:11:21.754Z,1.63
2022-11-18T20:13:48.412Z,2.00
2022-11-18T20:16:18.923Z,2.10
2022-11-18T20:18:49.752Z,2.10
2022-11-18T20:21:20.064Z,1.90
2022-11-18T20:23:51.862Z,1.50
2022-11-18T20:26:20.961Z,1.42
2022-11-18T20:28:52.951Z,1.63
2022-11-18T20:31:23.151Z,1.40
2022-11-18T20:33:51.986Z,1.77
2022-11-18T20:36:21.204Z,1.58
2022-11-18T20:38:58.896Z,1.83
2022-11-18T20:41:26.675Z,1.58
2022-11-18T20:43:53.224Z,1.42
2022-11-18T20:46:21.719Z,1.77
2022-11-18T20:48:49.222Z,1.20
2022-11-18T20:53:44.019Z,1.45
2022-11-18T20:56:12.832Z,1.58
2022-11-18T20:58:40.099Z,1.23
2022-11-18T21:01:14.181Z,1.45
2022-11-18T21:03:42.639Z,1.75
2022-11-18T21:06:14.280Z,1.50
2022-11-18T21:08:42.355Z,1.70
2022-11-18T21:11:12.773Z,1.85
2022-11-18T21:13:58.964Z,1.60
2022-11-18T21:16:26.787Z,1.30
2022-11-18T21:18:53.619Z,1.30
2022-11-18T21:21:38.865Z,1.50
2022-11-18T21:24:05.772Z,1.10
2022-11-18T21:26:33.214Z,1.45
2022-11-18T21:29:02.116Z,1.30
2022-11-18T21:31:29.476Z,1.90
2022-11-18T21:36:23.927Z,1.40
2022-11-18T21:38:50.626Z,1.45
2022-11-18T21:41:17.265Z,1.40
2022-11-18T21:44:04.594Z,1.58
2022-11-18T21:46:30.926Z,1.35
2022-11-18T21:49:00.317Z,1.30
2022-11-18T21:51:27.219Z,1.40
2022-11-18T21:53:54.482Z,2.00
2022-11-18T21:56:22.911Z,1.77
2022-11-18T21:58:49.770Z,1.20
2022-11-18T22:01:19.075Z,1.90
2022-11-18T22:03:55.051Z,1.75
2022-11-18T22:06:24.434Z,1.80
2022-11-18T22:08:51.659Z,1.42
2022-11-18T22:11:20.351Z,1.30
2022-11-18T22:13:46.871Z,1.65
2022-11-18T22:16:16.547Z,1.48
2022-11-18T22:18:45.480Z,1.23
2022-11-18T22:21:17.749Z,1.40
2022-11-18T22:23:44.959Z,1.42
2022-11-18T22:26:16.294Z,1.27
2022-11-18T22:28:43.312Z,1.40
2022-11-18T22:31:12.463Z,1.35
2022-11-18T22:33:39.612Z,1.30
2022-11-18T22:36:12.822Z,1.33
2022-11-18T22:38:40.009Z,1.13
2022-11-18T22:41:31.435Z,1.45
2022-11-18T22:44:00.377Z,1.40
2022-11-18T22:46:30.695Z,1.50
2022-11-18T22:48:58.547Z,1.30
2022-11-18T22:51:26.282Z,1.40
2022-11-18T22:54:09.758Z,1.42
2022-11-18T22:56:39.725Z,1.75
2022-11-18T22:59:06.204Z,1.50
2022-11-18T23:01:32.653Z,1.45
2022-11-18T23:03:59.131Z,1.40
2022-11-18T23:06:25.813Z,1.33
2022-11-18T23:08:52.306Z,1.45
2022-11-18T23:11:38.407Z,1.70
2022-11-18T23:14:07.467Z,1.27
2022-11-18T23:16:37.240Z,1.35
2022-11-18T23:19:05.912Z,1.63
2022-11-18T23:21:32.877Z,1.17
2022-11-18T23:23:59.372Z,1.20
2022-11-18T23:26:26.411Z,1.70
2022-11-18T23:28:52.955Z,1.00
2022-11-18T23:31:21.548Z,1.48
2022-11-18T23:33:48.123Z,1.23
2022-11-18T23:36:16.655Z,1.10
2022-11-18T23:38:43.610Z,1.25
2022-11-18T23:41:12.507Z,1.27
2022-11-18T23:43:39.622Z,1.10
2022-11-18T23:46:07.600Z,1.20
2022-11-18T23:48:36.892Z,1.00
2022-11-18T23:51:10.483Z,1.17
2022-11-18T23:53:38.142Z,1.20
2022-11-18T23:56:09.937Z,1.30
2022-11-18T23:58:37.759Z,1.08
